Time;durP1;ratioP1;P1;durP2;ratioP2;P2;SDS_P1;SDS_P2;PMS_P1;PMS_P2;Temp;Humidity;BMP_temperature;BMP_pressure;BME280_temperature;BME280_humidity;BME280_pressure;Samples;Min_cycle;Max_cycle;Signal;HPM_P1;HPM_P2
2024/01/08 00:00:29;;;;;;;96.57;69.75;;;;;;;;;;5032433;28;20026;-68
2024/01/08 00:02:55;;;;;;;97.63;68.82;;;;;;;;;;5032453;28;20018;-68
2024/01/08 00:05:21;;;;;;;93.20;65.80;;;;;;;;;;5032472;28;20092;-68
2024/01/08 00:07:47;;;;;;;92.90;62.15;;;;;;;;;;5032331;28;20051;-68
2024/01/08 00:10:14;;;;;;;92.18;63.97;;;;;;;;;;5032339;28;20032;-67
2024/01/08 00:12:40;;;;;;;90.45;62.60;;;;;;;;;;5032389;28;20041;-69
2024/01/08 00:15:07;;;;;;;82.45;58.45;;;;;;;;;;5032364;28;20433;-69
2024/01/08 00:17:33;;;;;;;93.88;64.60;;;;;;;;;;5032129;28;20044;-68
2024/01/08 00:19:59;;;;;;;93.60;60.35;;;;;;;;;;5032245;28;20029;-70
2024/01/08 00:22:25;;;;;;;89.18;58.17;;;;;;;;;;5032098;28;20028;-68
2024/01/08 00:24:51;;;;;;;90.72;57.47;;;;;;;;;;5031838;28;20033;-68
2024/01/08 00:27:17;;;;;;;84.60;56.22;;;;;;;;;;5032083;28;20026;-68
2024/01/08 00:29:43;;;;;;;85.22;54.15;;;;;;;;;;5031729;28;20100;-67
2024/01/08 00:32:09;;;;;;;81.25;52.03;;;;;;;;;;5031991;28;20022;-68
2024/01/08 00:34:36;;;;;;;74.50;50.83;;;;;;;;;;5031822;28;20018;-67
2024/01/08 00:37:02;;;;;;;81.35;54.40;;;;;;;;;;5032250;28;20479;-68
2024/01/08 00:39:28;;;;;;;79.85;54.70;;;;;;;;;;5031874;28;20030;-68
2024/01/08 00:41:54;;;;;;;80.47;53.03;;;;;;;;;;5031744;28;20018;-69
2024/01/08 00:44:20;;;;;;;84.63;51.40;;;;;;;;;;5031565;28;20159;-68
2024/01/08 00:46:46;;;;;;;70.38;49.92;;;;;;;;;;5031266;28;20116;-68
2024/01/08 00:49:12;;;;;;;76.55;50.78;;;;;;;;;;5031621;28;20088;-68
2024/01/08 00:51:38;;;;;;;65.70;47.88;;;;;;;;;;5031200;28;20576;-68
2024/01/08 00:54:04;;;;;;;69.25;48.25;;;;;;;;;;5031366;28;20026;-66
2024/01/08 00:56:30;;;;;;;66.05;46.47;;;;;;;;;;5031202;28;20614;-67
2024/01/08 00:58:56;;;;;;;75.80;48.00;;;;;;;;;;5031480;28;20097;-67
2024/01/08 01:01:22;;;;;;;64.28;45.88;;;;;;;;;;5031120;28;20138;-67
2024/01/08 01:03:49;;;;;;;68.68;46.97;;;;;;;;;;5031260;28;20025;-67
2024/01/08 01:06:20;;;;;;;64.43;44.58;;;;;;;;;;5031546;28;20467;-67
2024/01/08 01:08:46;;;;;;;64.15;43.67;;;;;;;;;;5031103;28;20029;-67
2024/01/08 01:11:12;;;;;;;61.45;42.92;;;;;;;;;;5039725;28;20037;-67
2024/01/08 01:13:38;;;;;;;60.92;43.13;;;;;;;;;;5029657;28;20507;-67
2024/01/08 01:16:04;;;;;;;58.78;42.20;;;;;;;;;;5032169;28;20045;-66
2024/01/08 01:18:30;;;;;;;61.45;42.55;;;;;;;;;;5032200;28;20030;-67
2024/01/08 01:20:56;;;;;;;56.45;39.63;;;;;;;;;;5031990;28;20017;-69
2024/01/08 01:23:22;;;;;;;55.45;39.55;;;;;;;;;;5031071;28;20142;-69
2024/01/08 01:25:48;;;;;;;56.50;38.38;;;;;;;;;;5030959;28;20134;-69
2024/01/08 01:28:14;;;;;;;56.45;38.75;;;;;;;;;;5031029;28;20017;-68
2024/01/08 01:30:40;;;;;;;55.60;37.75;;;;;;;;;;5030711;28;20021;-68
2024/01/08 01:33:06;;;;;;;53.33;38.53;;;;;;;;;;5030919;28;20032;-68
2024/01/08 01:35:32;;;;;;;54.20;37.10;;;;;;;;;;5030786;28;20017;-68
2024/01/08 01:37:58;;;;;;;51.85;36.63;;;;;;;;;;5030819;28;20087;-68
2024/01/08 01:40:27;;;;;;;58.08;37.20;;;;;;;;;;5030387;28;20025;-69
2024/01/08 01:42:54;;;;;;;52.63;35.47;;;;;;;;;;5022620;28;20581;-68
2024/01/08 01:45:24;;;;;;;48.10;34.83;;;;;;;;;;5030412;28;20036;-69
2024/01/08 01:48:00;;;;;;;46.15;33.00;;;;;;;;;;5030275;28;20052;-68
2024/01/08 01:50:26;;;;;;;52.08;35.47;;;;;;;;;;5045361;28;20690;-68
2024/01/08 01:52:58;;;;;;;45.38;33.47;;;;;;;;;;5041836;28;20101;-67
2024/01/08 01:55:24;;;;;;;47.90;33.80;;;;;;;;;;5026647;28;20037;-68
2024/01/08 01:57:50;;;;;;;44.38;32.00;;;;;;;;;;5030221;28;20025;-67
2024/01/08 02:00:16;;;;;;;46.55;32.58;;;;;;;;;;5030125;28;20451;-68
2024/01/08 02:02:43;;;;;;;47.70;31.65;;;;;;;;;;5030179;28;20121;-68
2024/01/08 02:05:10;;;;;;;44.63;31.23;;;;;;;;;;5030127;28;20367;-67
2024/01/08 02:07:37;;;;;;;43.10;30.10;;;;;;;;;;5030045;28;20037;-68
2024/01/08 02:10:03;;;;;;;40.88;30.05;;;;;;;;;;5029999;28;20029;-68
2024/01/08 02:12:29;;;;;;;43.60;30.75;;;;;;;;;;5030126;28;20501;-68
2024/01/08 02:14:55;;;;;;;38.78;27.73;;;;;;;;;;5030310;28;20021;-68
2024/01/08 02:17:21;;;;;;;40.50;29.23;;;;;;;;;;5030839;28;20513;-68
2024/01/08 02:19:47;;;;;;;38.00;27.40;;;;;;;;;;5030925;28;20427;-68
2024/01/08 02:22:13;;;;;;;38.55;28.17;;;;;;;;;;5046776;28;20099;-68
2024/01/08 02:24:40;;;;;;;40.75;28.05;;;;;;;;;;5030884;28;20033;-67
2024/01/08 02:27:06;;;;;;;36.65;26.58;;;;;;;;;;5031565;28;20024;-68
2024/01/08 02:29:32;;;;;;;36.42;26.67;;;;;;;;;;5031102;28;20029;-67
2024/01/08 02:31:58;;;;;;;38.05;26.35;;;;;;;;;;5031289;28;20491;-67
2024/01/08 02:34:25;;;;;;;35.97;23.65;;;;;;;;;;5031295;28;20030;-67
2024/01/08 02:36:51;;;;;;;36.63;24.85;;;;;;;;;;5031225;28;20014;-67
2024/01/08 02:39:17;;;;;;;33.88;24.15;;;;;;;;;;5031143;28;20117;-66
2024/01/08 02:41:43;;;;;;;39.30;25.80;;;;;;;;;;5030111;28;20104;-66
2024/01/08 02:44:09;;;;;;;30.95;22.73;;;;;;;;;;5031213;28;20075;-68
2024/01/08 02:46:35;;;;;;;34.38;24.58;;;;;;;;;;5031138;28;20017;-67
2024/01/08 02:49:01;;;;;;;33.17;22.70;;;;;;;;;;5030946;28;20059;-67
2024/01/08 02:51:27;;;;;;;36.85;23.63;;;;;;;;;;5030892;28;20024;-67
2024/01/08 02:53:53;;;;;;;28.65;21.38;;;;;;;;;;5031047;28;20475;-67
2024/01/08 02:56:23;;;;;;;27.63;21.20;;;;;;;;;;5031047;28;20061;-67
2024/01/08 02:58:49;;;;;;;32.92;22.63;;;;;;;;;;5030562;28;20049;-67
2024/01/08 03:01:15;;;;;;;31.02;21.77;;;;;;;;;;5039246;28;20022;-66
2024/01/08 03:03:41;;;;;;;32.38;22.55;;;;;;;;;;5029650;28;20025;-67
2024/01/08 03:06:07;;;;;;;28.23;21.05;;;;;;;;;;5031468;28;20017;-68
2024/01/08 03:08:33;;;;;;;30.45;20.85;;;;;;;;;;5030868;28;20036;-67
2024/01/08 03:10:59;;;;;;;31.63;22.17;;;;;;;;;;5031028;28;20017;-67
2024/01/08 03:13:25;;;;;;;31.92;21.98;;;;;;;;;;5031828;28;20021;-67
2024/01/08 03:15:51;;;;;;;31.23;20.60;;;;;;;;;;5034754;28;20505;-67
2024/01/08 03:18:17;;;;;;;28.48;20.77;;;;;;;;;;5035699;28;20025;-67
2024/01/08 03:20:43;;;;;;;30.60;20.35;;;;;;;;;;5036549;28;20449;-66
2024/01/08 03:23:09;;;;;;;29.42;20.55;;;;;;;;;;5046304;28;20025;-67
2024/01/08 03:25:36;;;;;;;27.17;19.15;;;;;;;;;;5051650;28;20045;-67
2024/01/08 03:28:02;;;;;;;28.17;19.40;;;;;;;;;;5046087;28;20301;-68
2024/01/08 03:30:28;;;;;;;28.50;19.80;;;;;;;;;;5045294;28;20021;-69
2024/01/08 03:32:54;;;;;;;25.40;18.88;;;;;;;;;;5038896;28;20276;-69
2024/01/08 03:35:20;;;;;;;26.50;19.73;;;;;;;;;;5029518;28;20017;-69
2024/01/08 03:37:46;;;;;;;23.80;17.25;;;;;;;;;;5031104;28;20521;-72
2024/01/08 03:40:13;;;;;;;24.90;17.90;;;;;;;;;;5030961;28;20118;-69
2024/01/08 03:42:39;;;;;;;26.73;17.95;;;;;;;;;;5031000;28;20037;-68
2024/01/08 03:45:05;;;;;;;26.48;17.02;;;;;;;;;;5031885;28;20390;-68
2024/01/08 03:47:31;;;;;;;26.23;16.80;;;;;;;;;;5030435;28;20025;-68
2024/01/08 03:49:57;;;;;;;26.88;15.95;;;;;;;;;;5029538;28;20024;-68
2024/01/08 03:52:23;;;;;;;24.80;17.15;;;;;;;;;;5032136;28;20050;-67
2024/01/08 03:54:49;;;;;;;26.60;16.15;;;;;;;;;;5033984;28;20063;-67
2024/01/08 03:57:15;;;;;;;22.70;15.48;;;;;;;;;;5034036;28;20508;-67
2024/01/08 03:59:42;;;;;;;24.92;15.80;;;;;;;;;;5033743;28;20572;-67
2024/01/08 04:02:08;;;;;;;23.55;15.45;;;;;;;;;;5035379;28;20130;-66
2024/01/08 04:04:34;;;;;;;20.25;15.15;;;;;;;;;;5034529;28;20104;-66
2024/01/08 04:07:00;;;;;;;20.60;14.32;;;;;;;;;;5033946;28;20030;-66
2024/01/08 04:09:26;;;;;;;23.75;14.60;;;;;;;;;;5034158;28;20017;-66
2024/01/08 04:11:53;;;;;;;23.05;14.50;;;;;;;;;;5034120;28;20033;-66
2024/01/08 04:14:19;;;;;;;20.98;15.40;;;;;;;;;;5034147;28;20042;-66
2024/01/08 04:16:45;;;;;;;25.55;15.50;;;;;;;;;;5033761;28;20021;-67
2024/01/08 04:19:11;;;;;;;17.50;13.45;;;;;;;;;;5033579;28;20100;-67
2024/01/08 04:21:37;;;;;;;20.05;13.35;;;;;;;;;;5033563;28;20033;-67
2024/01/08 04:24:03;;;;;;;19.20;12.75;;;;;;;;;;5033912;28;20487;-69
2024/01/08 04:26:29;;;;;;;25.27;14.05;;;;;;;;;;5033591;28;20033;-69
2024/01/08 04:28:55;;;;;;;18.23;12.50;;;;;;;;;;5033681;28;20037;-69
2024/01/08 04:31:22;;;;;;;20.58;12.35;;;;;;;;;;5033334;28;20063;-69
2024/01/08 04:33:51;;;;;;;17.73;11.98;;;;;;;;;;5033305;28;20117;-68
2024/01/08 04:36:17;;;;;;;17.17;12.38;;;;;;;;;;5033460;28;20018;-68
2024/01/08 04:38:47;;;;;;;17.85;12.32;;;;;;;;;;5035287;28;20495;-70
2024/01/08 04:41:22;;;;;;;19.52;13.45;;;;;;;;;;5040224;28;20100;-70
2024/01/08 04:43:48;;;;;;;19.13;11.48;;;;;;;;;;5039376;28;20031;-70
2024/01/08 04:46:15;;;;;;;16.95;11.23;;;;;;;;;;5039081;28;20036;-71
2024/01/08 04:48:41;;;;;;;18.15;11.70;;;;;;;;;;5036227;28;20513;-68
2024/01/08 04:51:07;;;;;;;16.88;11.85;;;;;;;;;;5045262;28;20022;-69
2024/01/08 04:53:34;;;;;;;16.55;11.18;;;;;;;;;;5041295;28;20072;-69
2024/01/08 04:56:00;;;;;;;15.85;10.82;;;;;;;;;;5050416;28;20045;-69
2024/01/08 04:58:26;;;;;;;16.05;11.00;;;;;;;;;;5033729;28;20021;-67
2024/01/08 05:00:52;;;;;;;15.68;11.10;;;;;;;;;;5025149;28;20018;-67
2024/01/08 05:03:18;;;;;;;15.32;11.02;;;;;;;;;;5034336;28;20025;-71
2024/01/08 05:05:44;;;;;;;19.13;11.20;;;;;;;;;;5041145;28;20036;-70
2024/01/08 05:08:10;;;;;;;16.10;10.32;;;;;;;;;;5042136;28;20034;-71
2024/01/08 05:10:36;;;;;;;17.33;10.32;;;;;;;;;;5042996;28;20383;-70
2024/01/08 05:13:02;;;;;;;14.35;10.32;;;;;;;;;;5032857;28;20017;-70
2024/01/08 05:15:43;;;;;;;17.02;11.00;;;;;;;;;;5032869;28;20025;-68
2024/01/08 05:18:09;;;;;;;;;;;;;;;;;;5033171;28;20083;-66
2024/01/08 05:20:45;;;;;;;17.05;9.80;;;;;;;;;;5032853;28;19905;-67
2024/01/08 05:23:33;;;;;;;14.65;9.43;;;;;;;;;;5032660;28;20022;-66
2024/01/08 05:26:22;;;;;;;14.10;9.45;;;;;;;;;;5032515;28;20071;-67
2024/01/08 05:31:50;;;;;;;12.45;8.40;;;;;;;;;;5008843;28;20386;-66
2024/01/08 05:34:17;;;;;;;11.52;8.23;;;;;;;;;;5031251;28;20018;-67
2024/01/08 05:36:56;;;;;;;13.50;7.93;;;;;;;;;;5032565;28;20025;-66
2024/01/08 05:39:28;;;;;;;13.80;8.52;;;;;;;;;;5032074;28;20022;-67
2024/01/08 05:42:06;;;;;;;12.88;8.25;;;;;;;;;;5047600;28;20561;-67
2024/01/08 05:44:32;;;;;;;12.25;7.57;;;;;;;;;;5030246;28;20029;-67
2024/01/08 05:47:10;;;;;;;16.60;8.15;;;;;;;;;;5032021;28;20022;-66
2024/01/08 05:52:45;;;;;;;14.65;7.70;;;;;;;;;;5032070;28;20398;-67
2024/01/08 05:55:14;;;;;;;13.00;7.25;;;;;;;;;;5031894;28;20053;-70
2024/01/08 05:57:46;;;;;;;10.15;7.70;;;;;;;;;;5033659;28;20150;-68
2024/01/08 06:00:15;;;;;;;13.90;8.02;;;;;;;;;;5032408;28;20021;-70
2024/01/08 06:02:41;;;;;;;11.40;7.60;;;;;;;;;;5029986;28;20029;-67
2024/01/08 06:05:08;;;;;;;11.38;7.45;;;;;;;;;;5029380;28;20025;-67
2024/01/08 06:07:34;;;;;;;8.98;5.95;;;;;;;;;;5031301;28;20022;-70
2024/01/08 06:10:00;;;;;;;11.75;6.47;;;;;;;;;;5029954;28;20027;-67
2024/01/08 06:12:26;;;;;;;9.00;6.57;;;;;;;;;;5031682;28;20085;-67
2024/01/08 06:14:52;;;;;;;10.85;7.22;;;;;;;;;;5022394;28;20613;-69
2024/01/08 06:17:19;;;;;;;11.73;6.50;;;;;;;;;;5030902;28;20034;-68
2024/01/08 06:19:45;;;;;;;12.88;7.18;;;;;;;;;;5030277;28;20036;-69
2024/01/08 06:22:11;;;;;;;19.92;6.95;;;;;;;;;;5031371;28;20025;-65
2024/01/08 06:24:37;;;;;;;20.65;6.65;;;;;;;;;;5030842;28;20505;-65
2024/01/08 06:27:03;;;;;;;12.48;6.65;;;;;;;;;;5031136;28;20470;-65
2024/01/08 06:29:29;;;;;;;16.77;6.72;;;;;;;;;;5031041;28;20454;-66
2024/01/08 06:35:15;;;;;;;21.10;7.80;;;;;;;;;;4964961;28;20023;-65
2024/01/08 06:37:42;;;;;;;20.27;7.55;;;;;;;;;;5018305;28;20501;-65
2024/01/08 06:40:08;;;;;;;17.80;7.28;;;;;;;;;;5039089;28;20044;-65
2024/01/08 06:42:34;;;;;;;18.35;7.55;;;;;;;;;;5036973;28;20037;-66
2024/01/08 06:45:00;;;;;;;17.27;7.43;;;;;;;;;;5030915;28;20077;-65
2024/01/08 06:47:26;;;;;;;17.55;6.95;;;;;;;;;;5030838;28;20033;-65
2024/01/08 06:49:52;;;;;;;21.52;7.30;;;;;;;;;;5035589;28;20018;-65
2024/01/08 06:52:18;;;;;;;12.98;6.15;;;;;;;;;;5039327;28;20516;-65
2024/01/08 06:54:44;;;;;;;12.85;6.45;;;;;;;;;;5030386;28;20372;-65
2024/01/08 06:57:10;;;;;;;16.55;7.03;;;;;;;;;;5027997;28;20024;-64
2024/01/08 06:59:36;;;;;;;12.23;6.63;;;;;;;;;;5029984;28;20104;-65
2024/01/08 07:02:02;;;;;;;16.58;6.28;;;;;;;;;;5030142;28;20028;-64
2024/01/08 07:04:28;;;;;;;16.67;6.22;;;;;;;;;;5030180;28;20450;-64
2024/01/08 07:06:55;;;;;;;16.52;6.55;;;;;;;;;;5029680;28;20021;-64
2024/01/08 07:09:20;;;;;;;11.52;5.70;;;;;;;;;;5029474;28;20100;-64
2024/01/08 07:11:47;;;;;;;15.98;7.82;;;;;;;;;;5029567;28;20548;-62
2024/01/08 07:14:13;;;;;;;9.18;7.05;;;;;;;;;;5031763;28;20096;-62
2024/01/08 07:16:39;;;;;;;13.13;7.45;;;;;;;;;;5030494;28;20108;-64
2024/01/08 07:19:05;;;;;;;9.93;5.97;;;;;;;;;;5029560;28;20025;-63
2024/01/08 07:21:31;;;;;;;18.70;8.13;;;;;;;;;;5030223;28;20018;-65
2024/01/08 07:23:58;;;;;;;27.08;7.50;;;;;;;;;;5030531;28;20056;-61
2024/01/08 07:26:24;;;;;;;14.57;6.80;;;;;;;;;;5030576;28;20506;-62
2024/01/08 07:28:50;;;;;;;14.07;6.70;;;;;;;;;;5059695;22;20044;-70
2024/01/08 07:31:16;;;;;;;12.27;6.57;;;;;;;;;;5044213;28;20033;-67
2024/01/08 07:33:43;;;;;;;11.38;7.85;;;;;;;;;;5034888;28;20077;-69
2024/01/08 07:36:09;;;;;;;13.27;7.53;;;;;;;;;;5043323;28;20143;-72
2024/01/08 07:38:35;;;;;;;13.50;8.43;;;;;;;;;;5048066;28;20100;-70
2024/01/08 07:41:01;;;;;;;12.98;8.43;;;;;;;;;;5032885;28;20021;-71
2024/01/08 07:43:27;;;;;;;11.10;7.07;;;;;;;;;;5042855;28;20032;-69
2024/01/08 07:45:54;;;;;;;9.10;6.15;;;;;;;;;;5049267;28;20029;-70
2024/01/08 07:48:20;;;;;;;12.52;6.75;;;;;;;;;;5053313;28;20501;-69
2024/01/08 07:50:47;;;;;;;10.68;6.65;;;;;;;;;;5051037;28;20021;-68
2024/01/08 07:53:14;;;;;;;9.02;6.57;;;;;;;;;;5051945;28;20025;-69
2024/01/08 07:55:40;;;;;;;9.75;6.70;;;;;;;;;;5051563;28;20021;-71
2024/01/08 07:58:06;;;;;;;8.35;5.43;;;;;;;;;;5053202;28;20410;-72
2024/01/08 08:00:32;;;;;;;8.75;5.90;;;;;;;;;;5053399;28;20072;-71
2024/01/08 08:02:58;;;;;;;7.57;5.63;;;;;;;;;;5052359;28;20048;-72
2024/01/08 08:05:24;;;;;;;9.32;5.18;;;;;;;;;;5051373;28;20064;-72
2024/01/08 08:07:51;;;;;;;7.10;5.10;;;;;;;;;;5051253;28;20398;-71
2024/01/08 08:10:17;;;;;;;9.38;5.15;;;;;;;;;;5050249;28;20495;-71
2024/01/08 08:12:43;;;;;;;8.35;4.88;;;;;;;;;;5049724;28;20028;-72
2024/01/08 08:15:10;;;;;;;6.30;4.47;;;;;;;;;;5050605;28;20028;-72
2024/01/08 08:17:36;;;;;;;8.65;4.32;;;;;;;;;;5051753;28;20056;-72
2024/01/08 08:20:05;;;;;;;8.65;4.78;;;;;;;;;;5053457;28;20055;-70
2024/01/08 08:22:31;;;;;;;8.82;4.72;;;;;;;;;;5053786;28;20025;-70
2024/01/08 08:24:57;;;;;;;10.55;4.50;;;;;;;;;;5053632;28;20032;-71
2024/01/08 08:27:23;;;;;;;11.88;4.47;;;;;;;;;;5053443;28;20064;-73
2024/01/08 08:29:49;;;;;;;7.03;4.40;;;;;;;;;;5053324;28;20115;-73
2024/01/08 08:32:15;;;;;;;10.20;5.15;;;;;;;;;;5053442;28;20067;-73
2024/01/08 08:34:41;;;;;;;11.20;5.10;;;;;;;;;;5053054;28;20021;-71
2024/01/08 08:37:11;;;;;;;11.30;4.25;;;;;;;;;;5053550;28;20028;-71
2024/01/08 08:39:37;;;;;;;9.77;4.13;;;;;;;;;;5051870;28;20159;-72
2024/01/08 08:42:04;;;;;;;14.20;3.63;;;;;;;;;;5053464;28;20082;-73
2024/01/08 08:44:30;;;;;;;6.07;3.70;;;;;;;;;;5053411;28;20025;-73
2024/01/08 08:46:56;;;;;;;8.10;4.35;;;;;;;;;;5052543;28;20021;-73
2024/01/08 08:49:22;;;;;;;6.43;3.33;;;;;;;;;;5051870;28;20124;-71
2024/01/08 08:51:48;;;;;;;5.53;3.60;;;;;;;;;;5051608;28;20021;-70
2024/01/08 08:54:14;;;;;;;8.27;4.00;;;;;;;;;;5051546;28;20017;-71
2024/01/08 08:56:40;;;;;;;5.22;3.35;;;;;;;;;;5052556;28;20155;-73
2024/01/08 08:59:06;;;;;;;4.85;3.35;;;;;;;;;;5053296;28;20028;-73
2024/01/08 09:01:32;;;;;;;7.85;3.75;;;;;;;;;;5050477;28;20025;-72
2024/01/08 09:03:59;;;;;;;15.45;4.35;;;;;;;;;;5052991;28;20501;-75
2024/01/08 09:06:26;;;;;;;10.35;4.10;;;;;;;;;;5052939;28;20033;-72
2024/01/08 09:08:52;;;;;;;12.68;4.22;;;;;;;;;;5052538;28;20059;-70
2024/01/08 09:11:19;;;;;;;13.52;4.30;;;;;;;;;;5052547;28;20021;-72
2024/01/08 09:13:45;;;;;;;11.23;4.32;;;;;;;;;;5052870;28;20075;-72
2024/01/08 09:16:12;;;;;;;8.60;4.10;;;;;;;;;;5051545;28;20529;-72
2024/01/08 09:18:38;;;;;;;8.80;4.18;;;;;;;;;;5050584;28;20035;-71
2024/01/08 09:21:06;;;;;;;9.35;4.10;;;;;;;;;;5051485;28;20398;-72
2024/01/08 09:23:32;;;;;;;17.45;4.68;;;;;;;;;;5051560;28;20031;-72
2024/01/08 09:25:59;;;;;;;7.35;3.85;;;;;;;;;;5052405;28;20406;-69
2024/01/08 09:28:25;;;;;;;17.75;4.03;;;;;;;;;;5051055;28;20100;-70
2024/01/08 09:30:52;;;;;;;14.20;4.05;;;;;;;;;;5051910;28;20387;-69
2024/01/08 09:33:18;;;;;;;14.90;4.25;;;;;;;;;;5051439;28;20454;-70
2024/01/08 09:35:44;;;;;;;11.95;4.78;;;;;;;;;;5052432;28;20021;-71
2024/01/08 09:38:10;;;;;;;7.25;3.30;;;;;;;;;;5052384;28;20021;-68
2024/01/08 09:40:36;;;;;;;7.30;3.95;;;;;;;;;;5052091;28;20445;-68
2024/01/08 09:43:06;;;;;;;6.60;4.30;;;;;;;;;;5052714;28;20025;-70
2024/01/08 09:45:32;;;;;;;9.27;3.92;;;;;;;;;;5052184;28;20513;-71
2024/01/08 09:47:59;;;;;;;7.70;4.10;;;;;;;;;;5052285;28;20460;-70
2024/01/08 09:50:28;;;;;;;5.32;3.78;;;;;;;;;;5051662;28;20025;-70
2024/01/08 09:52:55;;;;;;;10.35;3.45;;;;;;;;;;5052005;28;20070;-71
2024/01/08 09:55:22;;;;;;;6.80;3.40;;;;;;;;;;5052197;28;20406;-71
2024/01/08 09:57:48;;;;;;;6.13;3.65;;;;;;;;;;5051965;28;20552;-71
2024/01/08 10:00:14;;;;;;;6.90;3.85;;;;;;;;;;5051701;28;20421;-71
2024/01/08 10:02:40;;;;;;;9.45;3.70;;;;;;;;;;5051498;28;20029;-71
2024/01/08 10:05:07;;;;;;;6.75;2.97;;;;;;;;;;5051759;28;20029;-70
2024/01/08 10:07:37;;;;;;;8.13;3.20;;;;;;;;;;5051681;28;20021;-70
2024/01/08 10:10:03;;;;;;;12.00;3.70;;;;;;;;;;5051571;28;20025;-70
2024/01/08 10:12:33;;;;;;;9.30;3.53;;;;;;;;;;5051727;28;20045;-70
2024/01/08 10:14:59;;;;;;;9.90;3.50;;;;;;;;;;5051674;28;20036;-70
2024/01/08 10:17:25;;;;;;;10.40;3.72;;;;;;;;;;5051669;28;20017;-70
2024/01/08 10:19:51;;;;;;;8.77;3.08;;;;;;;;;;5051378;28;20017;-70
2024/01/08 10:22:17;;;;;;;3.58;3.17;;;;;;;;;;5051733;28;20025;-70
2024/01/08 10:24:45;;;;;;;5.38;2.88;;;;;;;;;;5051595;28;20544;-70
2024/01/08 10:27:11;;;;;;;7.32;4.47;;;;;;;;;;5051451;28;20051;-72
2024/01/08 10:29:38;;;;;;;7.75;3.72;;;;;;;;;;5051083;28;20033;-72
2024/01/08 10:32:08;;;;;;;4.13;2.80;;;;;;;;;;5051490;28;20017;-71
2024/01/08 10:34:36;;;;;;;7.63;3.25;;;;;;;;;;5051441;28;20029;-70
2024/01/08 10:37:02;;;;;;;4.97;2.70;;;;;;;;;;5051459;28;20025;-70
2024/01/08 10:39:32;;;;;;;4.97;2.83;;;;;;;;;;5049881;28;20025;-70
2024/01/08 10:41:58;;;;;;;4.68;2.83;;;;;;;;;;5051286;28;20410;-70
2024/01/08 10:44:25;;;;;;;9.98;2.83;;;;;;;;;;5051371;28;20051;-71
2024/01/08 10:47:00;;;;;;;5.72;3.28;;;;;;;;;;5051408;28;20120;-71
2024/01/08 10:49:31;;;;;;;6.82;3.30;;;;;;;;;;5049706;28;20036;-73
2024/01/08 10:52:00;;;;;;;3.90;2.90;;;;;;;;;;5051329;28;20021;-72
2024/01/08 10:54:50;;;;;;;6.95;2.85;;;;;;;;;;5051139;28;20025;-73
2024/01/08 10:57:16;;;;;;;4.18;2.88;;;;;;;;;;5051257;28;20028;-72
2024/01/08 10:59:43;;;;;;;6.93;2.65;;;;;;;;;;5050917;28;20383;-71
2024/01/08 11:02:14;;;;;;;5.05;2.85;;;;;;;;;;5052703;28;20500;-74
2024/01/08 11:04:42;;;;;;;5.32;2.55;;;;;;;;;;5055162;28;20059;-73
2024/01/08 11:07:09;;;;;;;6.50;3.13;;;;;;;;;;5055200;28;20024;-72
2024/01/08 11:09:35;;;;;;;6.75;3.35;;;;;;;;;;5054857;28;20017;-71
2024/01/08 11:12:02;;;;;;;4.03;2.40;;;;;;;;;;5055270;28;20044;-72
2024/01/08 11:14:29;;;;;;;3.35;2.38;;;;;;;;;;5053703;28;20013;-71
2024/01/08 11:16:56;;;;;;;5.82;2.80;;;;;;;;;;5054918;28;20029;-71
2024/01/08 11:19:22;;;;;;;7.63;3.10;;;;;;;;;;5054767;28;20474;-72
2024/01/08 11:21:57;;;;;;;6.45;3.13;;;;;;;;;;5054876;28;20029;-71
2024/01/08 11:24:24;;;;;;;7.85;2.85;;;;;;;;;;5054991;28;20021;-71
2024/01/08 11:26:51;;;;;;;5.75;2.78;;;;;;;;;;5054949;28;20028;-72
2024/01/08 11:29:18;;;;;;;6.72;2.72;;;;;;;;;;5054845;28;20074;-71
2024/01/08 11:31:51;;;;;;;6.60;2.40;;;;;;;;;;5054699;28;20021;-72
2024/01/08 11:34:36;;;;;;;6.40;2.78;;;;;;;;;;5054866;28;20028;-71
2024/01/08 11:37:23;;;;;;;2.83;2.38;;;;;;;;;;5054850;28;20619;-70
2024/01/08 11:39:50;;;;;;;3.60;2.63;;;;;;;;;;5052320;28;20577;-71
2024/01/08 11:42:16;;;;;;;7.32;2.70;;;;;;;;;;5054605;28;20024;-72
2024/01/08 11:44:43;;;;;;;6.32;2.90;;;;;;;;;;5054615;28;20177;-72
2024/01/08 11:47:09;;;;;;;9.00;2.20;;;;;;;;;;5054420;28;20402;-71
2024/01/08 11:49:35;;;;;;;4.75;2.47;;;;;;;;;;5054079;28;20025;-70
2024/01/08 11:52:01;;;;;;;6.07;2.35;;;;;;;;;;5052991;28;20445;-71
2024/01/08 11:54:27;;;;;;;4.78;2.67;;;;;;;;;;5054201;28;20112;-70
2024/01/08 11:56:54;;;;;;;4.72;2.25;;;;;;;;;;5054040;28;20020;-71
2024/01/08 11:59:32;;;;;;;3.65;2.28;;;;;;;;;;5054463;28;20154;-71
2024/01/08 12:02:11;;;;;;;16.60;2.92;;;;;;;;;;5047321;28;20121;-71
2024/01/08 12:04:37;;;;;;;9.00;2.55;;;;;;;;;;5034366;28;20036;-71
2024/01/08 12:07:03;;;;;;;4.75;2.35;;;;;;;;;;5034343;28;20029;-71
2024/01/08 12:09:32;;;;;;;3.40;2.35;;;;;;;;;;5033960;28;20046;-71
2024/01/08 12:12:05;;;;;;;5.38;2.60;;;;;;;;;;5034070;28;20022;-71
2024/01/08 12:14:32;;;;;;;2.40;2.10;;;;;;;;;;5033789;28;20041;-72
2024/01/08 12:16:58;;;;;;;3.08;1.98;;;;;;;;;;5033961;28;20021;-71
2024/01/08 12:19:36;;;;;;;3.83;2.30;;;;;;;;;;5033937;28;20112;-72
2024/01/08 12:22:02;;;;;;;2.65;2.00;;;;;;;;;;5034031;28;20025;-72
2024/01/08 12:24:28;;;;;;;2.20;1.88;;;;;;;;;;5033893;28;20025;-72
2024/01/08 12:27:00;;;;;;;4.47;2.53;;;;;;;;;;5033760;28;20025;-71
2024/01/08 12:29:26;;;;;;;6.53;2.10;;;;;;;;;;5033444;28;20438;-69
2024/01/08 12:32:03;;;;;;;5.15;2.30;;;;;;;;;;5035173;28;20399;-70
2024/01/08 12:34:32;;;;;;;3.40;1.85;;;;;;;;;;5053676;28;20093;-71
2024/01/08 12:36:59;;;;;;;6.72;3.22;;;;;;;;;;5054151;28;20067;-72
2024/01/08 12:39:26;;;;;;;6.72;2.97;;;;;;;;;;5053588;28;20108;-73
2024/01/08 12:41:58;;;;;;;4.10;2.60;;;;;;;;;;5053322;28;20486;-73
2024/01/08 12:44:25;;;;;;;5.22;3.33;;;;;;;;;;5053596;28;20029;-72
2024/01/08 12:46:51;;;;;;;3.47;2.53;;;;;;;;;;5053213;28;20021;-73
2024/01/08 12:49:17;;;;;;;5.95;2.80;;;;;;;;;;5053134;28;20048;-73
2024/01/08 12:51:43;;;;;;;3.00;2.13;;;;;;;;;;5053290;28;20025;-72
2024/01/08 12:54:09;;;;;;;5.50;2.97;;;;;;;;;;5053362;28;20021;-72
2024/01/08 12:56:36;;;;;;;8.43;3.17;;;;;;;;;;5053179;28;20025;-73
2024/01/08 12:59:02;;;;;;;9.27;2.28;;;;;;;;;;5053073;28;20033;-75
2024/01/08 13:01:29;;;;;;;4.90;2.30;;;;;;;;;;5052760;28;20098;-75
2024/01/08 13:03:55;;;;;;;5.78;2.50;;;;;;;;;;5052025;28;20028;-72
2024/01/08 13:06:22;;;;;;;7.15;2.33;;;;;;;;;;5053114;28;20025;-73
2024/01/08 13:08:52;;;;;;;5.25;2.47;;;;;;;;;;5053016;28;20021;-73
2024/01/08 13:11:18;;;;;;;3.67;2.10;;;;;;;;;;5053151;28;20108;-73
2024/01/08 13:13:44;;;;;;;4.00;2.28;;;;;;;;;;5053199;28;20062;-73
2024/01/08 13:16:10;;;;;;;3.83;2.50;;;;;;;;;;5053031;28;20021;-73
2024/01/08 13:18:36;;;;;;;4.00;2.25;;;;;;;;;;5053284;28;20031;-72
2024/01/08 13:21:03;;;;;;;6.18;2.72;;;;;;;;;;5052484;28;20090;-71
2024/01/08 13:23:29;;;;;;;7.28;2.35;;;;;;;;;;5053229;28;20028;-73
2024/01/08 13:25:55;;;;;;;7.47;2.67;;;;;;;;;;5052233;28;20047;-72
2024/01/08 13:28:23;;;;;;;7.20;2.80;;;;;;;;;;5053060;28;20041;-71
2024/01/08 13:30:49;;;;;;;8.25;2.85;;;;;;;;;;5052217;28;20029;-72
2024/01/08 13:33:15;;;;;;;12.43;2.95;;;;;;;;;;5052451;28;20045;-71
2024/01/08 13:35:41;;;;;;;8.18;2.50;;;;;;;;;;5052392;28;20025;-72
2024/01/08 13:38:07;;;;;;;8.85;3.10;;;;;;;;;;5052436;28;20020;-73
2024/01/08 13:40:33;;;;;;;7.10;2.75;;;;;;;;;;5052158;28;20482;-72
2024/01/08 13:43:02;;;;;;;6.88;2.88;;;;;;;;;;5052118;28;20039;-74
2024/01/08 13:45:29;;;;;;;12.85;2.90;;;;;;;;;;5052490;28;20040;-70
2024/01/08 13:47:55;;;;;;;6.40;2.55;;;;;;;;;;5052115;28;20025;-71
2024/01/08 13:50:22;;;;;;;9.48;2.58;;;;;;;;;;5052046;28;20070;-71
2024/01/08 13:52:48;;;;;;;11.27;2.72;;;;;;;;;;5052131;28;20033;-72
2024/01/08 13:55:14;;;;;;;6.00;2.55;;;;;;;;;;5051950;28;20380;-70
2024/01/08 13:57:40;;;;;;;3.70;2.53;;;;;;;;;;5051566;28;20401;-72
2024/01/08 14:00:10;;;;;;;5.45;2.40;;;;;;;;;;5051603;28;20506;-72
2024/01/08 14:02:45;;;;;;;7.80;2.30;;;;;;;;;;5052041;28;20036;-72
2024/01/08 14:08:03;;;;;;;5.97;2.47;;;;;;;;;;5031809;28;20033;-72
2024/01/08 14:10:29;;;;;;;3.70;2.10;;;;;;;;;;5050505;28;20025;-71
2024/01/08 14:12:56;;;;;;;6.50;1.98;;;;;;;;;;5051963;28;20017;-72
2024/01/08 14:15:34;;;;;;;6.70;2.22;;;;;;;;;;5052347;28;20029;-71
2024/01/08 14:18:04;;;;;;;7.90;2.47;;;;;;;;;;5051881;28;20029;-72
2024/01/08 14:20:32;;;;;;;3.70;1.55;;;;;;;;;;5051024;28;20465;-72
2024/01/08 14:23:02;;;;;;;5.10;1.65;;;;;;;;;;5050465;28;20485;-71
2024/01/08 14:25:43;;;;;;;2.97;1.88;;;;;;;;;;5050557;28;20037;-72
2024/01/08 14:28:09;;;;;;;3.53;1.67;;;;;;;;;;5048548;28;20028;-72
2024/01/08 14:30:44;;;;;;;3.88;1.40;;;;;;;;;;5050058;28;20093;-72
2024/01/08 14:33:10;;;;;;;3.80;1.70;;;;;;;;;;5050023;28;20036;-71
2024/01/08 14:35:37;;;;;;;3.10;1.42;;;;;;;;;;5049595;28;20100;-71
2024/01/08 14:38:03;;;;;;;5.60;2.58;;;;;;;;;;5049792;28;20561;-74
2024/01/08 14:40:34;;;;;;;6.68;2.30;;;;;;;;;;5049261;28;20071;-75
2024/01/08 14:46:10;;;;;;;4.25;2.17;;;;;;;;;;5047371;28;20037;-74